»·PEaware :: N540CF KSNA-KPMD

N540CF :: KSNA-KPMD

FLIGHT INFORMATION

Flight Status: Arrived
Operator: Privately registered:
United States
More flights under this callsign
Pilot: Ryan S. (25666)
Aircraft: CESSNA 172 SKYHAWK
(C172)
More flights by this aircraft type
Origin: KSNA John Wayne-Orange Co
United States
Destination: KPMD Palmdale AF Plant 42
United States
More flights between these airports :: More routes between these airports
Route: SLI V8 POXKU V363 BAYJY V186 DARTS V459 BERRI V201 PMD
File this flight plan on PilotEdge
Remarks:
Altitude:
(Current/Filed)
8,000ft
Speed:
(Current/Filed)
100kts
Departed: 01-Jul-21 10:57 AM
Arrived: 01-Jul-21 12:10 PM
Distance/Time
Traveled:
66nm/1:13
Distance/Time
To Go:
Arrived

Flight Plot

Page will automatically refresh every two minutes.

Flight plan parsing failed; only flown route is shown


Map Options




Map Legend


Flown Route
Filed Route
Departure Airport
Arrival Airport
Navaid (VOR, NDB)
Fix

Horizontal Profiles

Position Reports

Time Latitude Longitude Heading Altitude Ground
Speed
01-Jul-21 10:12 33.670039 -117.875148 23 60ft 0kts
01-Jul-21 10:13 33.670039 -117.875148 23 60ft 0kts
01-Jul-21 10:14 33.670039 -117.875148 23 60ft 0kts
01-Jul-21 10:15 33.670039 -117.875148 23 60ft 0kts
01-Jul-21 10:16 33.670039 -117.875148 23 60ft 0kts
01-Jul-21 10:17 33.670039 -117.875148 23 60ft 0kts
01-Jul-21 10:18 33.670039 -117.875148 23 60ft 0kts
01-Jul-21 10:19 33.670039 -117.875148 23 60ft 0kts
01-Jul-21 10:20 33.670039 -117.875148 23 60ft 0kts
01-Jul-21 10:21 33.670039 -117.875148 23 60ft 0kts
01-Jul-21 10:22 33.670039 -117.875148 23 60ft 0kts
01-Jul-21 10:23 33.670039 -117.875148 23 60ft 0kts
01-Jul-21 10:24 33.670039 -117.875148 23 60ft 0kts
01-Jul-21 10:25 33.670039 -117.875148 23 60ft 0kts
01-Jul-21 10:26 33.670039 -117.875148 23 60ft 0kts
01-Jul-21 10:27 33.670039 -117.875148 23 60ft 0kts
01-Jul-21 10:28 33.670039 -117.875148 23 60ft 0kts
01-Jul-21 10:29 33.670039 -117.875148 23 60ft 0kts
01-Jul-21 10:30 33.670039 -117.875148 23 60ft 0kts
01-Jul-21 10:31 33.670039 -117.875148 23 60ft 0kts
01-Jul-21 10:32 33.670040 -117.875148 23 60ft 0kts
01-Jul-21 10:33 33.670040 -117.875148 23 60ft 0kts
01-Jul-21 10:34 33.670040 -117.875148 23 60ft 0kts
01-Jul-21 10:35 33.670040 -117.875148 23 60ft 0kts
01-Jul-21 10:36 33.670040 -117.875148 23 60ft 0kts
01-Jul-21 10:37 33.670040 -117.875148 23 60ft 0kts
01-Jul-21 10:38 33.670040 -117.875148 23 60ft 0kts
01-Jul-21 10:39 33.670040 -117.875148 23 60ft 0kts
01-Jul-21 10:40 33.670040 -117.875148 23 60ft 0kts
01-Jul-21 10:41 33.670040 -117.875148 23 60ft 0kts
01-Jul-21 10:42 33.670040 -117.875148 23 60ft 0kts
01-Jul-21 10:43 33.670040 -117.875148 23 60ft 0kts
01-Jul-21 10:44 33.670079 -117.875110 73 60ft 1kts
01-Jul-21 10:45 33.670607 -117.873546 28 60ft 11kts
01-Jul-21 10:46 33.674582 -117.871013 23 60ft 13kts
01-Jul-21 10:47 33.677396 -117.868833 71 60ft 4kts
01-Jul-21 10:48 33.677623 -117.868694 347 60ft 0kts
01-Jul-21 10:49 33.677623 -117.868694 347 60ft 0kts
01-Jul-21 10:50 33.677623 -117.868694 347 60ft 0kts
01-Jul-21 10:51 33.677623 -117.868694 347 60ft 0kts
01-Jul-21 10:52 33.677994 -117.868830 355 60ft 2kts
01-Jul-21 10:53 33.680517 -117.867457 27 60ft 7kts
01-Jul-21 10:54 33.681214 -117.866465 113 60ft 0kts
01-Jul-21 10:55 33.680739 -117.865629 187 60ft 5kts
01-Jul-21 10:56 33.669093 -117.873196 210 391ft 77kts
01-Jul-21 10:57 33.652568 -117.888354 232 1158ft 77kts
01-Jul-21 10:58 33.638063 -117.907305 231 1886ft 78kts
01-Jul-21 10:59 33.642447 -117.920776 10 2555ft 74kts
01-Jul-21 11:00 33.662355 -117.914867 17 3212ft 75kts
01-Jul-21 11:01 33.682230 -117.908130 8 3833ft 74kts
01-Jul-21 11:02 33.702923 -117.901332 8 4440ft 77kts
01-Jul-21 11:03 33.724033 -117.896696 2 5054ft 79kts
01-Jul-21 11:04 33.745419 -117.890669 5 5665ft 80kts
01-Jul-21 11:05 33.767486 -117.883980 4 6014ft 80kts
01-Jul-21 11:06 33.792978 -117.876521 4 6020ft 103kts
01-Jul-21 11:07 33.821528 -117.868895 6 5997ft 103kts
01-Jul-21 11:08 33.845989 -117.850958 82 5862ft 125kts
01-Jul-21 11:09 33.832278 -117.816645 89 5979ft 111kts
01-Jul-21 11:10 33.849163 -117.788763 51 5998ft 109kts
01-Jul-21 11:11 33.868126 -117.766535 339 6001ft 96kts
01-Jul-21 11:12 33.894233 -117.774664 339 5997ft 97kts
01-Jul-21 11:13 33.920600 -117.782796 346 5995ft 99kts
01-Jul-21 11:14 33.947560 -117.784138 349 6478ft 94kts
01-Jul-21 11:15 33.972621 -117.784848 347 7118ft 83kts
01-Jul-21 11:16 33.995236 -117.785452 347 7619ft 86kts
01-Jul-21 11:17 34.009076 -117.803987 290 8041ft 79kts
01-Jul-21 11:18 34.019135 -117.829115 286 8460ft 85kts
01-Jul-21 11:19 34.028382 -117.855913 284 8870ft 87kts
01-Jul-21 11:20 34.037181 -117.883175 282 9280ft 87kts
01-Jul-21 11:21 34.045709 -117.910361 281 9690ft 86kts
01-Jul-21 11:22 34.054057 -117.937301 280 10014ft 87kts
01-Jul-21 11:23 34.062762 -117.965353 280 10017ft 90kts
01-Jul-21 11:24 34.071591 -117.993889 280 10015ft 89kts
01-Jul-21 11:25 34.080019 -118.021193 279 10006ft 85kts
01-Jul-21 11:26 34.088078 -118.047465 278 10006ft 84kts
01-Jul-21 11:27 34.096729 -118.075867 279 10003ft 94kts
01-Jul-21 11:28 34.106006 -118.106041 279 9997ft 96kts
01-Jul-21 11:29 34.115397 -118.136651 279 9997ft 97kts
01-Jul-21 11:30 34.124869 -118.167608 278 9997ft 99kts
01-Jul-21 11:31 34.134474 -118.199048 278 9997ft 100kts
01-Jul-21 11:32 34.144170 -118.230838 278 9997ft 101kts
01-Jul-21 11:33 34.153505 -118.261521 287 9997ft 93kts
01-Jul-21 11:34 34.175851 -118.280060 321 9998ft 99kts
01-Jul-21 11:35 34.202429 -118.288770 3 9998ft 114kts
01-Jul-21 11:36 34.232597 -118.274852 13 9998ft 117kts
01-Jul-21 11:37 34.262455 -118.259199 13 10002ft 116kts
01-Jul-21 11:38 34.292056 -118.243599 13 10009ft 116kts
01-Jul-21 11:39 34.321638 -118.227995 13 10016ft 116kts
01-Jul-21 11:40 34.351331 -118.212321 13 10023ft 116kts
01-Jul-21 11:41 34.382102 -118.196080 15 9318ft 130kts
01-Jul-21 11:42 34.415294 -118.178459 15 8392ft 130kts
01-Jul-21 11:43 34.447895 -118.161199 16 7487ft 127kts
01-Jul-21 11:44 34.477112 -118.145613 15 7045ft 97kts
01-Jul-21 11:45 34.492772 -118.120036 56 7043ft 97kts
01-Jul-21 11:46 34.505728 -118.089655 49 7074ft 113kts
01-Jul-21 11:47 34.522846 -118.055310 52 7029ft 123kts
01-Jul-21 11:48 34.538820 -118.018185 60 7009ft 125kts
01-Jul-21 11:49 34.552725 -117.980174 61 7055ft 123kts
01-Jul-21 11:50 34.566595 -117.941922 60 7049ft 123kts
01-Jul-21 11:51 34.579901 -117.903048 61 7047ft 125kts
01-Jul-21 11:52 34.595012 -117.864765 55 7040ft 125kts
01-Jul-21 11:53 34.607364 -117.824962 70 7036ft 129kts
01-Jul-21 11:54 34.615364 -117.784974 70 7041ft 120kts
01-Jul-21 11:55 34.623598 -117.748050 71 7000ft 110kts
01-Jul-21 11:56 34.639148 -117.717061 32 6940ft 121kts
01-Jul-21 11:58 34.658416 -117.744139 284 6622ft 120kts
01-Jul-21 11:59 34.656756 -117.783967 252 5908ft 117kts
01-Jul-21 12:00 34.647743 -117.821783 248 5356ft 104kts
01-Jul-21 12:01 34.644135 -117.855618 263 4880ft 102kts
01-Jul-21 12:02 34.640838 -117.889595 264 4452ft 102kts
01-Jul-21 12:03 34.638901 -117.923002 257 4517ft 97kts
01-Jul-21 12:04 34.638731 -117.955473 269 4374ft 94kts
01-Jul-21 12:05 34.638911 -117.980049 251 3965ft 55kts
01-Jul-21 12:06 34.637519 -117.999413 258 3683ft 60kts
01-Jul-21 12:07 34.636034 -118.018699 268 3401ft 59kts
01-Jul-21 12:08 34.635179 -118.038553 256 3135ft 60kts
01-Jul-21 12:09 34.633710 -118.058763 257 2793ft 62kts
01-Jul-21 12:10 34.632538 -118.077747 271 2501ft 36kts
01-Jul-21 12:11 34.634587 -118.082796 355 2499ft 9kts
01-Jul-21 12:12 34.633989 -118.089498 235 2633ft 41kts
01-Jul-21 12:13 34.630171 -118.100733 301 2785ft 91kts
01-Jul-21 12:14 34.647793 -118.124595 288 3344ft 91kts
01-Jul-21 12:14 34.668050 -118.139993 322 3740ft 107kts
01-Jul-21 12:16 34.694415 -118.164377 291 3977ft 96kts
01-Jul-21 12:17 34.720687 -118.176284 355 3671ft 111kts
01-Jul-21 12:18 34.744783 -118.175089 335 2924ft 80kts
01-Jul-21 12:18 34.748248 -118.190887 260 2679ft 60kts
01-Jul-21 12:20 34.742929 -118.212054 244 2340ft 34kts
01-Jul-21 12:21 34.741003 -118.215174 242 2340ft 10kts

Navigation Log

Ident Type
Flight plan parsing failed, navigation log unavailable